Olympia, South Carolina
Current Conditions -  °F | °C
As of 4:53 AM on Sunday 23 Nov 2014 (Local Time) from KCUB Reporting Station
Light Rain Light Rain  
Wind Chill: 46°   Ceiling: 10000
Heat Index: 48°   Visibility: 5mi
Dew Point: 45°   Wind: 5mph
Humidity: 89%   Direction: 70°ENE
Pressure: 30.21"   Gusts: NA
Location:  33.9841°N, 81.0264°W
Report Text: KCUB 230953Z AUTO 07004KT 5SM -RA BR FEW075 OVC100 09/07 A3021 RMK AO2 SLP227 P0003 T00890072
Loading
Personal Weather Stations






























Interactive Weather Map New forecast layout! Learn more

10-Day Weather Forecast

Advertisements
Track Severe Weather on mobile